createdAt,value
2023-04-14T00:07:40.372Z,1.87
2023-04-14T00:17:43.714Z,1.87
2023-04-14T00:27:48.202Z,1.80
2023-04-14T00:37:51.826Z,2.00
2023-04-14T00:47:56.694Z,2.17
2023-04-14T00:58:00.764Z,2.30
2023-04-14T01:08:05.922Z,2.40
2023-04-14T01:18:19.663Z,2.40
2023-04-14T01:28:42.668Z,2.50
2023-04-14T01:38:51.331Z,2.30
2023-04-14T01:48:55.780Z,2.30
2023-04-14T01:59:03.012Z,2.67
2023-04-14T02:09:10.332Z,2.37
2023-04-14T02:19:17.850Z,2.60
2023-04-14T02:29:23.341Z,2.60
2023-04-14T02:39:32.363Z,3.00
2023-04-14T02:49:37.398Z,2.73
2023-04-14T02:59:44.164Z,3.27
2023-04-14T03:09:50.503Z,3.07
2023-04-14T03:19:56.520Z,2.80
2023-04-14T03:30:03.936Z,3.00
2023-04-14T03:40:12.408Z,3.00
2023-04-14T03:50:21.133Z,2.50
2023-04-14T04:00:27.989Z,2.67
2023-04-14T04:10:35.079Z,2.20
2023-04-14T04:20:42.798Z,2.83
2023-04-14T04:30:47.372Z,2.83
2023-04-14T04:40:52.438Z,2.63
2023-04-14T04:51:00.380Z,2.13
2023-04-14T05:01:10.335Z,2.40
2023-04-14T05:11:13.696Z,2.17
2023-04-14T05:21:18.266Z,2.50
2023-04-14T05:31:21.505Z,2.37
2023-04-14T05:41:26.590Z,1.80
2023-04-14T05:51:30.328Z,1.80
2023-04-14T06:01:34.833Z,1.80
2023-04-14T06:11:39.630Z,1.97
2023-04-14T06:21:44.125Z,1.83
2023-04-14T06:31:47.325Z,1.70
2023-04-14T06:41:52.082Z,1.60
2023-04-14T06:51:55.186Z,1.50
2023-04-14T07:01:59.772Z,1.50
2023-04-14T07:12:03.532Z,1.88
2023-04-14T07:22:09.049Z,1.90
2023-04-14T07:32:13.404Z,1.50
2023-04-14T07:42:18.120Z,1.47
2023-04-14T07:52:21.240Z,1.50
2023-04-14T08:02:25.995Z,1.70
2023-04-14T08:12:29.268Z,1.87
2023-04-14T08:22:33.848Z,1.70
2023-04-14T08:32:37.180Z,1.50
2023-04-14T08:42:41.722Z,1.60
2023-04-14T08:52:46.937Z,1.30
2023-04-14T09:02:52.703Z,1.30
2023-04-14T09:12:57.628Z,1.10
2023-04-14T09:23:02.363Z,1.43
2023-04-14T09:33:07.897Z,1.50
2023-04-14T09:43:24.790Z,1.33
2023-04-14T09:53:29.633Z,1.30
2023-04-14T10:03:40.561Z,1.40
2023-04-14T10:13:43.955Z,1.20
2023-04-14T10:23:49.003Z,1.13
2023-04-14T10:33:52.412Z,1.23
2023-04-14T10:43:57.038Z,1.30
2023-04-14T10:54:04.859Z,1.27
2023-04-14T11:04:19.870Z,1.17
2023-04-14T11:14:27.798Z,1.20
2023-04-14T11:24:32.897Z,0.90
2023-04-14T11:34:36.037Z,0.90
2023-04-14T11:44:40.580Z,0.90
2023-04-14T11:54:43.784Z,0.95
2023-04-14T12:04:50.479Z,1.17
2023-04-14T12:14:54.152Z,1.08
2023-04-14T12:24:58.786Z,0.80
2023-04-14T12:35:02.022Z,0.80
2023-04-14T12:45:07.552Z,0.65
2023-04-14T12:55:21.081Z,0.70
2023-04-14T13:05:25.670Z,1.10
2023-04-14T13:16:12.207Z,0.85
2023-04-14T13:25:53.440Z,0.87
2023-04-14T13:35:57.307Z,0.85
2023-04-14T13:46:02.615Z,0.90
2023-04-14T13:56:06.429Z,0.70
2023-04-14T14:06:11.058Z,0.70
2023-04-14T14:16:20.279Z,0.90
2023-04-14T14:26:33.972Z,0.63
2023-04-14T14:36:37.124Z,0.90
2023-04-14T14:46:41.841Z,1.00
2023-04-14T14:56:45.239Z,0.90
2023-04-14T15:06:49.865Z,1.00
2023-04-14T15:16:53.203Z,0.90
2023-04-14T15:26:57.741Z,0.88
2023-04-14T15:37:01.466Z,1.07
2023-04-14T15:47:06.066Z,0.70
2023-04-14T15:57:09.201Z,1.30
2023-04-14T16:07:13.727Z,0.87
2023-04-14T16:17:17.340Z,1.20
2023-04-14T16:27:21.811Z,0.82
2023-04-14T16:37:26.638Z,1.00
2023-04-14T16:47:31.358Z,1.00
2023-04-14T16:57:34.574Z,1.03
2023-04-14T17:07:39.054Z,1.13
2023-04-14T17:17:42.931Z,1.10
2023-04-14T17:27:47.838Z,1.20
2023-04-14T17:37:51.130Z,2.87
2023-04-14T17:47:55.844Z,1.53
2023-04-14T17:58:00.214Z,1.33
2023-04-14T18:08:05.128Z,0.90
2023-04-14T18:18:08.862Z,0.93
2023-04-14T18:28:13.483Z,1.20
2023-04-14T18:38:16.801Z,1.20
2023-04-14T18:48:21.548Z,1.33
2023-04-14T18:58:25.176Z,1.30
2023-04-14T19:08:29.811Z,1.10
2023-04-14T19:18:33.032Z,1.00
2023-04-14T19:28:39.741Z,1.30
2023-04-14T19:38:43.093Z,1.00
2023-04-14T19:48:47.614Z,0.93
2023-04-14T19:58:51.905Z,1.10
2023-04-14T20:08:56.625Z,1.40
2023-04-14T20:18:59.922Z,1.07
2023-04-14T20:29:05.360Z,1.30
2023-04-14T20:39:08.568Z,1.23
2023-04-14T20:49:13.126Z,1.33
2023-04-14T20:59:16.469Z,1.40
2023-04-14T21:09:24.857Z,1.30
2023-04-14T21:19:28.375Z,1.07
2023-04-14T21:29:32.888Z,1.30
2023-04-14T21:39:36.261Z,1.10
2023-04-14T21:49:41.290Z,1.10
2023-04-14T21:59:44.470Z,0.93
2023-04-14T22:09:48.965Z,1.10
2023-04-14T22:19:52.465Z,1.00
2023-04-14T22:29:57.452Z,1.10
2023-04-14T22:40:02.726Z,0.90
2023-04-14T22:50:09.060Z,1.00
2023-04-14T23:00:13.507Z,0.97
2023-04-14T23:10:18.010Z,0.90
2023-04-14T23:20:21.878Z,1.03
2023-04-14T23:30:27.509Z,1.27
2023-04-14T23:40:31.794Z,1.30
2023-04-14T23:51:00.612Z,1.20
